sensor_id;sensor_type;location;lat;lon;timestamp;pressure;altitude;pressure_sealevel;temperature;humidity
22181;BME280;11256;50.830;12.834;2023-05-10T00:02:35;97002.28;;;13.71;47.52
22181;BME280;11256;50.830;12.834;2023-05-10T00:07:36;97016.06;;;13.75;48.10
22181;BME280;11256;50.830;12.834;2023-05-10T00:12:36;97005.44;;;13.65;48.27
22181;BME280;11256;50.830;12.834;2023-05-10T00:17:37;97001.91;;;13.56;49.30
22181;BME280;11256;50.830;12.834;2023-05-10T00:22:37;96998.69;;;13.54;48.03
22181;BME280;11256;50.830;12.834;2023-05-10T00:27:37;97002.72;;;13.65;47.43
22181;BME280;11256;50.830;12.834;2023-05-10T00:32:37;96999.88;;;13.70;48.07
22181;BME280;11256;50.830;12.834;2023-05-10T00:37:38;96985.22;;;13.49;49.04
22181;BME280;11256;50.830;12.834;2023-05-10T00:42:38;96972.56;;;13.44;48.43
22181;BME280;11256;50.830;12.834;2023-05-10T00:47:40;96976.25;;;13.40;48.97
22181;BME280;11256;50.830;12.834;2023-05-10T00:52:41;96970.44;;;13.33;49.33
22181;BME280;11256;50.830;12.834;2023-05-10T00:57:42;96962.91;;;13.21;50.62
22181;BME280;11256;50.830;12.834;2023-05-10T01:02:46;96959.94;;;13.09;50.68
22181;BME280;11256;50.830;12.834;2023-05-10T01:07:47;96951.94;;;13.04;50.42
22181;BME280;11256;50.830;12.834;2023-05-10T01:12:48;96962.38;;;13.11;50.44
22181;BME280;11256;50.830;12.834;2023-05-10T01:17:49;96959.91;;;13.01;50.47
22181;BME280;11256;50.830;12.834;2023-05-10T01:28:42;96939.94;;;12.97;50.34
22181;BME280;11256;50.830;12.834;2023-05-10T01:33:59;96949.44;;;12.86;51.25
22181;BME280;11256;50.830;12.834;2023-05-10T01:39:15;96946.84;;;12.81;50.92
22181;BME280;11256;50.830;12.834;2023-05-10T01:44:29;96944.28;;;12.76;51.83
22181;BME280;11256;50.830;12.834;2023-05-10T01:49:54;96949.44;;;12.86;50.34
22181;BME280;11256;50.830;12.834;2023-05-10T01:55:04;96948.19;;;12.92;49.48
22181;BME280;11256;50.830;12.834;2023-05-10T02:00:06;96954.25;;;12.89;49.36
22181;BME280;11256;50.830;12.834;2023-05-10T02:05:17;96956.91;;;12.80;51.46
22181;BME280;11256;50.830;12.834;2023-05-10T02:10:19;96960.59;;;12.76;51.40
22181;BME280;11256;50.830;12.834;2023-05-10T02:15:22;96973.41;;;12.84;48.95
22181;BME280;11256;50.830;12.834;2023-05-10T02:20:25;96961.91;;;12.87;48.36
22181;BME280;11256;50.830;12.834;2023-05-10T02:25:26;96951.31;;;12.77;49.07
22181;BME280;11256;50.830;12.834;2023-05-10T02:30:27;96956.22;;;12.66;51.75
22181;BME280;11256;50.830;12.834;2023-05-10T02:35:28;96943.19;;;12.55;51.42
22181;BME280;11256;50.830;12.834;2023-05-10T02:40:30;96945.22;;;12.49;49.21
22181;BME280;11256;50.830;12.834;2023-05-10T02:45:31;96938.81;;;12.45;49.09
22181;BME280;11256;50.830;12.834;2023-05-10T02:50:33;96947.53;;;12.34;51.72
22181;BME280;11256;50.830;12.834;2023-05-10T02:55:37;96952.97;;;12.34;51.79
22181;BME280;11256;50.830;12.834;2023-05-10T03:00:38;96951.38;;;12.33;49.98
22181;BME280;11256;50.830;12.834;2023-05-10T03:05:38;96966.44;;;12.39;49.01
22181;BME280;11256;50.830;12.834;2023-05-10T03:11:01;96967.72;;;12.41;48.53
22181;BME280;11256;50.830;12.834;2023-05-10T03:16:12;96973.50;;;12.26;53.57
22181;BME280;11256;50.830;12.834;2023-05-10T03:21:17;96970.00;;;12.26;52.01
22181;BME280;11256;50.830;12.834;2023-05-10T03:26:23;96973.34;;;12.23;52.13
22181;BME280;11256;50.830;12.834;2023-05-10T03:31:29;96963.38;;;11.96;54.73
22181;BME280;11256;50.830;12.834;2023-05-10T03:36:30;96967.41;;;11.99;54.13
22181;BME280;11256;50.830;12.834;2023-05-10T03:41:30;96962.94;;;12.03;53.04
22181;BME280;11256;50.830;12.834;2023-05-10T03:46:31;96946.66;;;12.03;51.80
22181;BME280;11256;50.830;12.834;2023-05-10T03:51:31;96957.41;;;12.08;50.91
22181;BME280;11256;50.830;12.834;2023-05-10T03:56:32;96962.81;;;12.08;52.66
22181;BME280;11256;50.830;12.834;2023-05-10T04:01:34;96965.72;;;12.11;51.02
22181;BME280;11256;50.830;12.834;2023-05-10T04:06:34;96957.78;;;12.15;50.41
22181;BME280;11256;50.830;12.834;2023-05-10T04:11:35;96969.13;;;12.17;53.10
22181;BME280;11256;50.830;12.834;2023-05-10T04:16:35;96962.84;;;12.30;51.54
22181;BME280;11256;50.830;12.834;2023-05-10T04:21:36;96957.78;;;12.37;52.66
22181;BME280;11256;50.830;12.834;2023-05-10T04:26:36;96944.78;;;12.56;53.04
22181;BME280;11256;50.830;12.834;2023-05-10T04:31:36;96950.00;;;12.74;53.13
22181;BME280;11256;50.830;12.834;2023-05-10T04:36:44;96953.91;;;12.82;53.60
22181;BME280;11256;50.830;12.834;2023-05-10T04:41:45;96956.44;;;13.09;52.67
22181;BME280;11256;50.830;12.834;2023-05-10T04:46:45;96952.97;;;13.25;53.23
22181;BME280;11256;50.830;12.834;2023-05-10T04:51:45;96954.63;;;13.35;53.75
22181;BME280;11256;50.830;12.834;2023-05-10T04:56:46;96967.34;;;13.65;52.49
22181;BME280;11256;50.830;12.834;2023-05-10T05:01:46;96960.75;;;13.57;53.29
22181;BME280;11256;50.830;12.834;2023-05-10T05:06:46;96954.84;;;13.64;53.00
22181;BME280;11256;50.830;12.834;2023-05-10T05:11:47;96960.94;;;13.78;53.10
22181;BME280;11256;50.830;12.834;2023-05-10T05:16:47;96968.97;;;13.83;52.95
22181;BME280;11256;50.830;12.834;2023-05-10T05:21:47;96974.44;;;14.00;52.84
22181;BME280;11256;50.830;12.834;2023-05-10T05:26:48;96972.88;;;14.24;52.26
22181;BME280;11256;50.830;12.834;2023-05-10T05:31:48;96968.34;;;14.54;52.14
22181;BME280;11256;50.830;12.834;2023-05-10T05:36:49;96949.41;;;14.66;52.00
22181;BME280;11256;50.830;12.834;2023-05-10T05:41:49;96953.88;;;14.79;51.84
22181;BME280;11256;50.830;12.834;2023-05-10T05:46:49;96959.56;;;15.11;51.12
22181;BME280;11256;50.830;12.834;2023-05-10T05:51:50;96960.75;;;15.31;51.20
22181;BME280;11256;50.830;12.834;2023-05-10T05:56:50;96960.50;;;15.53;50.31
22181;BME280;11256;50.830;12.834;2023-05-10T06:01:50;96960.22;;;15.75;50.43
22181;BME280;11256;50.830;12.834;2023-05-10T06:06:51;96968.97;;;15.89;49.93
22181;BME280;11256;50.830;12.834;2023-05-10T06:11:51;96974.78;;;16.08;49.10
22181;BME280;11256;50.830;12.834;2023-05-10T06:16:51;96980.13;;;16.25;49.04
22181;BME280;11256;50.830;12.834;2023-05-10T06:21:52;96989.84;;;16.55;48.68
22181;BME280;11256;50.830;12.834;2023-05-10T06:26:52;96981.44;;;16.60;48.46
22181;BME280;11256;50.830;12.834;2023-05-10T06:31:52;96982.00;;;16.53;48.40
22181;BME280;11256;50.830;12.834;2023-05-10T06:36:54;96978.25;;;16.58;48.09
22181;BME280;11256;50.830;12.834;2023-05-10T06:41:54;96982.78;;;16.54;47.46
22181;BME280;11256;50.830;12.834;2023-05-10T06:46:54;96989.41;;;16.53;47.17
22181;BME280;11256;50.830;12.834;2023-05-10T06:51:55;96993.84;;;16.37;48.23
22181;BME280;11256;50.830;12.834;2023-05-10T06:56:56;96985.03;;;16.40;48.31
22181;BME280;11256;50.830;12.834;2023-05-10T07:01:56;96992.22;;;16.44;48.31
22181;BME280;11256;50.830;12.834;2023-05-10T07:06:56;96999.69;;;16.56;48.63
22181;BME280;11256;50.830;12.834;2023-05-10T07:11:57;97002.50;;;16.80;48.49
22181;BME280;11256;50.830;12.834;2023-05-10T07:16:58;96998.97;;;17.12;48.00
22181;BME280;11256;50.830;12.834;2023-05-10T07:21:58;96993.06;;;17.34;47.63
22181;BME280;11256;50.830;12.834;2023-05-10T07:26:59;97000.75;;;17.52;47.82
22181;BME280;11256;50.830;12.834;2023-05-10T07:31:59;97001.91;;;17.75;46.98
22181;BME280;11256;50.830;12.834;2023-05-10T07:37:00;97007.72;;;17.86;46.57
22181;BME280;11256;50.830;12.834;2023-05-10T07:42:00;97019.59;;;18.14;47.07
22181;BME280;11256;50.830;12.834;2023-05-10T07:47:03;97027.56;;;18.43;46.31
22181;BME280;11256;50.830;12.834;2023-05-10T07:52:06;97023.38;;;18.61;45.63
22181;BME280;11256;50.830;12.834;2023-05-10T07:57:07;97033.19;;;18.74;45.31
22181;BME280;11256;50.830;12.834;2023-05-10T08:02:07;97039.94;;;18.76;44.66
22181;BME280;11256;50.830;12.834;2023-05-10T08:07:09;97048.97;;;18.77;44.42
22181;BME280;11256;50.830;12.834;2023-05-10T08:12:10;97049.66;;;18.74;44.44
22181;BME280;11256;50.830;12.834;2023-05-10T08:17:11;97055.94;;;18.74;44.57
22181;BME280;11256;50.830;12.834;2023-05-10T08:22:11;97059.41;;;18.71;44.29
22181;BME280;11256;50.830;12.834;2023-05-10T08:27:12;97061.91;;;18.64;44.25
22181;BME280;11256;50.830;12.834;2023-05-10T08:32:15;97066.75;;;18.55;44.38
22181;BME280;11256;50.830;12.834;2023-05-10T08:37:15;97076.81;;;18.51;44.56
22181;BME280;11256;50.830;12.834;2023-05-10T08:42:22;97083.00;;;18.48;45.09
22181;BME280;11256;50.830;12.834;2023-05-10T08:47:25;97085.31;;;18.22;44.37
22181;BME280;11256;50.830;12.834;2023-05-10T08:52:26;97084.84;;;18.08;44.59
22181;BME280;11256;50.830;12.834;2023-05-10T08:57:28;97084.94;;;18.00;44.74
22181;BME280;11256;50.830;12.834;2023-05-10T09:02:28;97096.84;;;17.92;44.84
22181;BME280;11256;50.830;12.834;2023-05-10T09:07:29;97102.41;;;17.83;45.15
22181;BME280;11256;50.830;12.834;2023-05-10T09:12:29;97106.19;;;17.79;45.40
22181;BME280;11256;50.830;12.834;2023-05-10T09:17:30;97117.03;;;17.75;45.64
22181;BME280;11256;50.830;12.834;2023-05-10T09:22:31;97130.13;;;17.70;45.96
22181;BME280;11256;50.830;12.834;2023-05-10T09:27:31;97132.31;;;17.64;46.06
22181;BME280;11256;50.830;12.834;2023-05-10T09:32:40;97128.97;;;17.59;46.47
22181;BME280;11256;50.830;12.834;2023-05-10T09:37:42;97140.88;;;17.63;47.81
22181;BME280;11256;50.830;12.834;2023-05-10T09:43:02;97149.41;;;17.61;47.78
22181;BME280;11256;50.830;12.834;2023-05-10T09:48:03;97155.34;;;17.51;47.58
22181;BME280;11256;50.830;12.834;2023-05-10T09:53:03;97160.91;;;17.43;47.24
22181;BME280;11256;50.830;12.834;2023-05-10T09:58:04;97171.09;;;17.34;48.59
22181;BME280;11256;50.830;12.834;2023-05-10T10:03:12;97173.59;;;17.27;48.00
22181;BME280;11256;50.830;12.834;2023-05-10T10:08:14;97165.31;;;17.15;50.90
22181;BME280;11256;50.830;12.834;2023-05-10T10:13:14;97169.78;;;16.99;53.15
22181;BME280;11256;50.830;12.834;2023-05-10T10:18:15;97167.53;;;16.80;53.76
22181;BME280;11256;50.830;12.834;2023-05-10T10:23:16;97160.69;;;16.66;53.31
22181;BME280;11256;50.830;12.834;2023-05-10T10:28:25;97164.56;;;16.65;52.61
22181;BME280;11256;50.830;12.834;2023-05-10T10:33:56;97160.16;;;16.52;54.81
22181;BME280;11256;50.830;12.834;2023-05-10T10:39:00;97156.69;;;16.63;51.65
22181;BME280;11256;50.830;12.834;2023-05-10T10:49:26;97166.69;;;16.59;51.57
22181;BME280;11256;50.830;12.834;2023-05-10T10:54:28;97177.41;;;16.35;53.75
22181;BME280;11256;50.830;12.834;2023-05-10T10:59:28;97160.53;;;16.42;51.93
22181;BME280;11256;50.830;12.834;2023-05-10T11:04:41;97167.28;;;16.36;51.64
22181;BME280;11256;50.830;12.834;2023-05-10T11:09:42;97169.88;;;16.41;51.19
22181;BME280;11256;50.830;12.834;2023-05-10T11:14:43;97175.00;;;16.34;53.39
22181;BME280;11256;50.830;12.834;2023-05-10T11:20:09;97190.69;;;16.54;53.38
22181;BME280;11256;50.830;12.834;2023-05-10T11:25:10;97202.09;;;16.64;54.02
22181;BME280;11256;50.830;12.834;2023-05-10T11:30:11;97196.25;;;16.66;54.12
22181;BME280;11256;50.830;12.834;2023-05-10T11:35:12;97208.47;;;16.68;53.90
22181;BME280;11256;50.830;12.834;2023-05-10T11:40:12;97204.47;;;16.66;53.63
22181;BME280;11256;50.830;12.834;2023-05-10T11:45:13;97201.53;;;16.71;54.29
22181;BME280;11256;50.830;12.834;2023-05-10T11:50:13;97200.88;;;16.74;53.89
22181;BME280;11256;50.830;12.834;2023-05-10T11:55:13;97207.97;;;16.75;54.47
22181;BME280;11256;50.830;12.834;2023-05-10T12:00:14;97209.19;;;16.86;55.05
22181;BME280;11256;50.830;12.834;2023-05-10T12:05:16;97224.25;;;16.92;55.35
22181;BME280;11256;50.830;12.834;2023-05-10T12:10:24;97218.28;;;16.98;55.01
22181;BME280;11256;50.830;12.834;2023-05-10T12:15:25;97224.53;;;16.99;54.00
22181;BME280;11256;50.830;12.834;2023-05-10T12:20:27;97231.28;;;17.01;54.54
22181;BME280;11256;50.830;12.834;2023-05-10T12:25:36;97224.53;;;16.99;54.02
22181;BME280;11256;50.830;12.834;2023-05-10T12:30:38;97225.47;;;17.03;55.72
22181;BME280;11256;50.830;12.834;2023-05-10T12:35:50;97228.22;;;17.03;54.54
22181;BME280;11256;50.830;12.834;2023-05-10T12:40:51;97230.69;;;16.96;60.84
22181;BME280;11256;50.830;12.834;2023-05-10T12:45:54;97224.66;;;16.82;58.79
22181;BME280;11256;50.830;12.834;2023-05-10T12:50:54;97234.94;;;16.85;57.83
22181;BME280;11256;50.830;12.834;2023-05-10T12:55:55;97242.97;;;16.90;57.86
22181;BME280;11256;50.830;12.834;2023-05-10T13:00:55;97230.81;;;16.79;58.02
22181;BME280;11256;50.830;12.834;2023-05-10T13:05:56;97225.34;;;16.79;57.47
22181;BME280;11256;50.830;12.834;2023-05-10T13:10:57;97239.75;;;16.88;56.72
22181;BME280;11256;50.830;12.834;2023-05-10T13:15:57;97232.81;;;16.90;59.00
22181;BME280;11256;50.830;12.834;2023-05-10T13:20:57;97222.81;;;16.94;57.70
22181;BME280;11256;50.830;12.834;2023-05-10T13:25:57;97229.34;;;17.02;60.72
22181;BME280;11256;50.830;12.834;2023-05-10T13:30:58;97223.81;;;17.10;63.07
22181;BME280;11256;50.830;12.834;2023-05-10T13:36:00;97227.88;;;17.25;59.20
22181;BME280;11256;50.830;12.834;2023-05-10T13:41:00;97218.81;;;17.33;61.65
22181;BME280;11256;50.830;12.834;2023-05-10T13:46:00;97226.91;;;17.50;61.07
22181;BME280;11256;50.830;12.834;2023-05-10T13:51:00;97210.72;;;17.57;60.38
22181;BME280;11256;50.830;12.834;2023-05-10T13:56:01;97223.56;;;17.65;62.57
22181;BME280;11256;50.830;12.834;2023-05-10T14:01:02;97221.03;;;17.60;63.06
22181;BME280;11256;50.830;12.834;2023-05-10T14:06:04;97218.44;;;17.75;61.61
22181;BME280;11256;50.830;12.834;2023-05-10T14:11:05;97214.91;;;17.75;60.41
22181;BME280;11256;50.830;12.834;2023-05-10T14:16:06;97218.47;;;17.87;61.26
22181;BME280;11256;50.830;12.834;2023-05-10T14:21:06;97207.91;;;17.98;61.70
22181;BME280;11256;50.830;12.834;2023-05-10T14:26:06;97212.81;;;18.16;62.39
22181;BME280;11256;50.830;12.834;2023-05-10T14:31:07;97212.03;;;18.04;61.02
22181;BME280;11256;50.830;12.834;2023-05-10T14:36:08;97212.03;;;18.04;60.12
22181;BME280;11256;50.830;12.834;2023-05-10T14:41:08;97209.72;;;18.06;60.49
22181;BME280;11256;50.830;12.834;2023-05-10T14:46:09;97217.75;;;18.11;60.47
22181;BME280;11256;50.830;12.834;2023-05-10T14:51:09;97208.88;;;17.81;61.56
22181;BME280;11256;50.830;12.834;2023-05-10T14:56:10;97216.81;;;18.07;60.75
22181;BME280;11256;50.830;12.834;2023-05-10T15:01:10;97223.47;;;18.18;60.07
22181;BME280;11256;50.830;12.834;2023-05-10T15:06:11;97222.09;;;18.24;60.10
22181;BME280;11256;50.830;12.834;2023-05-10T15:11:11;97221.53;;;18.30;59.74
22181;BME280;11256;50.830;12.834;2023-05-10T15:16:12;97214.16;;;18.43;59.79
22181;BME280;11256;50.830;12.834;2023-05-10T15:21:12;97215.75;;;18.44;59.07
22181;BME280;11256;50.830;12.834;2023-05-10T15:26:13;97207.97;;;18.46;58.54
22181;BME280;11256;50.830;12.834;2023-05-10T15:31:13;97224.81;;;18.56;58.70
22181;BME280;11256;50.830;12.834;2023-05-10T15:36:13;97220.91;;;18.57;58.61
22181;BME280;11256;50.830;12.834;2023-05-10T15:41:14;97217.50;;;18.60;58.19
22181;BME280;11256;50.830;12.834;2023-05-10T15:46:14;97222.16;;;18.60;58.00
22181;BME280;11256;50.830;12.834;2023-05-10T15:51:14;97218.75;;;18.63;58.13
22181;BME280;11256;50.830;12.834;2023-05-10T15:56:15;97225.34;;;18.62;58.12
22181;BME280;11256;50.830;12.834;2023-05-10T16:01:15;97224.00;;;18.56;56.95
22181;BME280;11256;50.830;12.834;2023-05-10T16:06:16;97223.09;;;18.52;56.71
22181;BME280;11256;50.830;12.834;2023-05-10T16:11:16;97214.38;;;18.50;56.48
22181;BME280;11256;50.830;12.834;2023-05-10T16:16:16;97234.75;;;18.49;56.35
22181;BME280;11256;50.830;12.834;2023-05-10T16:21:17;97221.03;;;18.37;55.85
22181;BME280;11256;50.830;12.834;2023-05-10T16:26:17;97231.28;;;18.40;55.86
22181;BME280;11256;50.830;12.834;2023-05-10T16:31:17;97227.66;;;18.36;55.93
22181;BME280;11256;50.830;12.834;2023-05-10T16:36:19;97228.00;;;18.34;55.80
22181;BME280;11256;50.830;12.834;2023-05-10T16:41:19;97238.69;;;18.27;55.67
22181;BME280;11256;50.830;12.834;2023-05-10T16:46:20;97236.28;;;18.26;55.97
22181;BME280;11256;50.830;12.834;2023-05-10T16:51:20;97229.75;;;18.18;55.86
22181;BME280;11256;50.830;12.834;2023-05-10T16:56:21;97239.69;;;18.23;56.22
22181;BME280;11256;50.830;12.834;2023-05-10T17:01:22;97251.59;;;18.15;55.74
22181;BME280;11256;50.830;12.834;2023-05-10T17:06:25;97246.75;;;18.12;55.90
22181;BME280;11256;50.830;12.834;2023-05-10T17:11:25;97248.00;;;18.02;55.95
22181;BME280;11256;50.830;12.834;2023-05-10T17:16:27;97246.09;;;18.03;55.82
22181;BME280;11256;50.830;12.834;2023-05-10T17:21:28;97248.66;;;17.99;55.55
22181;BME280;11256;50.830;12.834;2023-05-10T17:26:28;97252.44;;;17.95;55.66
22181;BME280;11256;50.830;12.834;2023-05-10T17:31:29;97255.38;;;17.90;56.01
22181;BME280;11256;50.830;12.834;2023-05-10T17:36:29;97253.34;;;17.87;55.99
22181;BME280;11256;50.830;12.834;2023-05-10T17:41:30;97249.66;;;17.83;55.78
22181;BME280;11256;50.830;12.834;2023-05-10T17:46:30;97263.69;;;17.81;56.19
22181;BME280;11256;50.830;12.834;2023-05-10T17:51:30;97249.13;;;17.69;56.15
22181;BME280;11256;50.830;12.834;2023-05-10T17:56:31;97257.56;;;17.64;56.38
22181;BME280;11256;50.830;12.834;2023-05-10T18:01:32;97261.44;;;17.63;56.60
22181;BME280;11256;50.830;12.834;2023-05-10T18:06:35;97261.00;;;17.61;56.66
22181;BME280;11256;50.830;12.834;2023-05-10T18:11:36;97262.13;;;17.60;56.71
22181;BME280;11256;50.830;12.834;2023-05-10T18:16:41;97280.97;;;17.61;56.42
22181;BME280;11256;50.830;12.834;2023-05-10T18:21:42;97268.28;;;17.57;56.46
22181;BME280;11256;50.830;12.834;2023-05-10T18:26:42;97275.09;;;17.51;56.45
22181;BME280;11256;50.830;12.834;2023-05-10T18:31:43;97265.84;;;17.35;56.26
22181;BME280;11256;50.830;12.834;2023-05-10T18:36:43;97273.25;;;17.43;56.29
22181;BME280;11256;50.830;12.834;2023-05-10T18:41:44;97279.88;;;17.33;56.33
22181;BME280;11256;50.830;12.834;2023-05-10T18:46:44;97281.06;;;17.24;56.72
22181;BME280;11256;50.830;12.834;2023-05-10T18:51:45;97289.53;;;17.10;56.77
22181;BME280;11256;50.830;12.834;2023-05-10T18:56:47;97281.56;;;16.97;57.34
22181;BME280;11256;50.830;12.834;2023-05-10T19:01:54;97298.00;;;16.97;57.28
22181;BME280;11256;50.830;12.834;2023-05-10T19:06:55;97302.50;;;16.93;57.84
22181;BME280;11256;50.830;12.834;2023-05-10T19:11:55;97292.16;;;16.78;57.59
22181;BME280;11256;50.830;12.834;2023-05-10T19:16:55;97306.13;;;16.85;57.67
22181;BME280;11256;50.830;12.834;2023-05-10T19:21:56;97332.44;;;16.98;57.47
22181;BME280;11256;50.830;12.834;2023-05-10T19:26:56;97320.56;;;16.94;57.38
22181;BME280;11256;50.830;12.834;2023-05-10T19:31:57;97316.25;;;16.84;57.44
22181;BME280;11256;50.830;12.834;2023-05-10T19:37:00;97322.41;;;16.81;57.63
22181;BME280;11256;50.830;12.834;2023-05-10T19:42:04;97315.16;;;16.77;57.69
22181;BME280;11256;50.830;12.834;2023-05-10T19:47:07;97318.47;;;16.62;57.74
22181;BME280;11256;50.830;12.834;2023-05-10T19:52:10;97330.16;;;16.71;57.89
22181;BME280;11256;50.830;12.834;2023-05-10T19:57:17;97295.00;;;16.44;58.17
22181;BME280;11256;50.830;12.834;2023-05-10T20:02:20;97295.50;;;16.37;58.21
22181;BME280;11256;50.830;12.834;2023-05-10T20:07:34;97299.19;;;16.33;58.48
22181;BME280;11256;50.830;12.834;2023-05-10T20:12:35;97319.81;;;16.39;58.38
22181;BME280;11256;50.830;12.834;2023-05-10T20:17:47;97328.97;;;16.43;58.68
22181;BME280;11256;50.830;12.834;2023-05-10T20:23:00;97323.84;;;16.24;58.62
22181;BME280;11256;50.830;12.834;2023-05-10T20:28:03;97331.44;;;16.19;58.64
22181;BME280;11256;50.830;12.834;2023-05-10T20:33:05;97356.81;;;16.28;58.90
22181;BME280;11256;50.830;12.834;2023-05-10T20:38:06;97325.63;;;16.12;58.98
22181;BME280;11256;50.830;12.834;2023-05-10T20:43:06;97323.25;;;16.10;59.00
22181;BME280;11256;50.830;12.834;2023-05-10T20:48:10;97341.22;;;16.20;58.90
22181;BME280;11256;50.830;12.834;2023-05-10T20:53:21;97340.09;;;16.21;58.84
22181;BME280;11256;50.830;12.834;2023-05-10T20:58:32;97329.03;;;16.09;58.94
22181;BME280;11256;50.830;12.834;2023-05-10T21:03:52;97347.50;;;16.20;59.06
22181;BME280;11256;50.830;12.834;2023-05-10T21:09:04;97354.09;;;16.19;59.07
22181;BME280;11256;50.830;12.834;2023-05-10T21:14:17;97346.88;;;16.15;59.27
22181;BME280;11256;50.830;12.834;2023-05-10T21:19:42;97313.44;;;16.01;59.06
22181;BME280;11256;50.830;12.834;2023-05-10T21:24:43;97300.91;;;15.83;59.36
22181;BME280;11256;50.830;12.834;2023-05-10T21:29:49;97316.69;;;15.86;59.49
22181;BME280;11256;50.830;12.834;2023-05-10T21:34:55;97327.63;;;15.86;59.73
22181;BME280;11256;50.830;12.834;2023-05-10T21:39:56;97357.00;;;16.06;59.78
22181;BME280;11256;50.830;12.834;2023-05-10T21:44:56;97351.53;;;15.97;59.98
22181;BME280;11256;50.830;12.834;2023-05-10T21:49:56;97354.63;;;15.96;59.75
22181;BME280;11256;50.830;12.834;2023-05-10T21:54:57;97363.94;;;15.95;59.66
22181;BME280;11256;50.830;12.834;2023-05-10T21:59:57;97362.31;;;15.94;59.54
22181;BME280;11256;50.830;12.834;2023-05-10T22:04:57;97352.06;;;15.91;59.74
22181;BME280;11256;50.830;12.834;2023-05-10T22:09:58;97355.88;;;15.90;59.85
22181;BME280;11256;50.830;12.834;2023-05-10T22:14:59;97355.41;;;15.88;60.17
22181;BME280;11256;50.830;12.834;2023-05-10T22:19:59;97335.63;;;15.74;60.11
22181;BME280;11256;50.830;12.834;2023-05-10T22:25:04;97359.91;;;15.84;60.03
22181;BME280;11256;50.830;12.834;2023-05-10T22:30:07;97351.09;;;15.78;60.12
22181;BME280;11256;50.830;12.834;2023-05-10T22:35:08;97355.09;;;15.81;60.04
22181;BME280;11256;50.830;12.834;2023-05-10T22:40:08;97343.03;;;15.65;60.16
22181;BME280;11256;50.830;12.834;2023-05-10T22:45:09;97341.44;;;15.64;60.37
22181;BME280;11256;50.830;12.834;2023-05-10T22:50:10;97357.84;;;15.72;60.58
22181;BME280;11256;50.830;12.834;2023-05-10T22:55:10;97358.00;;;15.67;60.74
22181;BME280;11256;50.830;12.834;2023-05-10T23:00:11;97355.56;;;15.66;61.08
22181;BME280;11256;50.830;12.834;2023-05-10T23:05:12;97347.53;;;15.61;60.71
22181;BME280;11256;50.830;12.834;2023-05-10T23:10:12;97341.09;;;15.57;61.20
22181;BME280;11256;50.830;12.834;2023-05-10T23:15:13;97367.31;;;15.58;61.09
22181;BME280;11256;50.830;12.834;2023-05-10T23:20:13;97343.03;;;15.48;61.25
22181;BME280;11256;50.830;12.834;2023-05-10T23:25:16;97343.97;;;15.52;60.80
22181;BME280;11256;50.830;12.834;2023-05-10T23:30:16;97348.16;;;15.49;61.31
22181;BME280;11256;50.830;12.834;2023-05-10T23:35:16;97342.38;;;15.51;60.93
22181;BME280;11256;50.830;12.834;2023-05-10T23:40:17;97342.38;;;15.51;61.24
22181;BME280;11256;50.830;12.834;2023-05-10T23:45:17;97347.38;;;15.49;61.70
22181;BME280;11256;50.830;12.834;2023-05-10T23:50:17;97343.19;;;15.43;61.47
22181;BME280;11256;50.830;12.834;2023-05-10T23:55:21;97338.19;;;15.45;61.87
